Time;durP1;ratioP1;P1;durP2;ratioP2;P2;SDS_P1;SDS_P2;PMS_P1;PMS_P2;Temp;Humidity;BMP_temperature;BMP_pressure;BME280_temperature;BME280_humidity;BME280_pressure;Samples;Min_cycle;Max_cycle;Signal;HPM_P1;HPM_P2
2023/05/24 00:01:15;;;;;;;6.53;3.80;;;;;;;;;;6198508;28;20105;-85
2023/05/24 00:04:18;;;;;;;10.82;4.13;;;;;;;;;;6173913;28;20046;-84
2023/05/24 00:07:20;;;;;;;7.10;3.50;;;;;;;;;;6173859;28;20047;-83
2023/05/24 00:10:22;;;;;;;7.70;3.80;;;;;;;;;;6172642;28;20058;-83
2023/05/24 00:13:24;;;;;;;7.70;4.18;;;;;;;;;;6173258;28;20065;-84
2023/05/24 00:16:25;;;;;;;7.88;4.50;;;;;;;;;;6170787;28;20063;-85
2023/05/24 00:19:28;;;;;;;6.88;3.75;;;;;;;;;;6173422;28;20050;-85
2023/05/24 00:22:30;;;;;;;5.07;3.72;;;;;;;;;;6183931;28;20058;-80
2023/05/24 00:25:32;;;;;;;9.73;3.90;;;;;;;;;;6198696;28;20046;-81
2023/05/24 00:28:33;;;;;;;5.55;3.78;;;;;;;;;;6197970;28;20303;-86
2023/05/24 00:31:35;;;;;;;7.65;4.20;;;;;;;;;;6198546;28;20050;-87
2023/05/24 00:34:38;;;;;;;15.73;4.05;;;;;;;;;;6196834;28;20065;-82
2023/05/24 00:37:43;;;;;;;4.65;3.45;;;;;;;;;;6196222;28;20046;-84
2023/05/24 00:40:45;;;;;;;6.28;4.15;;;;;;;;;;6195973;28;20069;-85
2023/05/24 00:43:47;;;;;;;5.15;4.38;;;;;;;;;;6193871;28;20141;-81
2023/05/24 00:46:49;;;;;;;6.55;4.40;;;;;;;;;;6195419;28;20051;-83
2023/05/24 00:49:52;;;;;;;6.15;4.30;;;;;;;;;;6197668;28;20054;-84
2023/05/24 00:52:54;;;;;;;6.43;4.28;;;;;;;;;;6196290;28;20057;-86
2023/05/24 00:55:56;;;;;;;6.60;4.53;;;;;;;;;;6195323;28;20058;-86
2023/05/24 00:58:58;;;;;;;6.35;4.10;;;;;;;;;;6196732;28;20113;-89
2023/05/24 01:01:59;;;;;;;9.93;4.47;;;;;;;;;;6196362;28;20326;-85
2023/05/24 01:05:02;;;;;;;7.38;4.55;;;;;;;;;;6193135;28;20054;-86
2023/05/24 01:08:13;;;;;;;8.13;3.65;;;;;;;;;;6195823;28;20057;-91
2023/05/24 01:11:25;;;;;;;5.93;4.20;;;;;;;;;;6195692;28;20110;-84
2023/05/24 01:14:29;;;;;;;6.88;4.22;;;;;;;;;;6196865;28;20054;-81
2023/05/24 01:17:41;;;;;;;4.70;3.90;;;;;;;;;;6196715;28;20050;-81
2023/05/24 01:20:46;;;;;;;6.35;3.97;;;;;;;;;;6200876;28;20370;-89
2023/05/24 01:24:00;;;;;;;7.00;3.90;;;;;;;;;;6196151;28;20101;-83
2023/05/24 01:27:08;;;;;;;4.30;3.72;;;;;;;;;;6179142;28;20054;-82
2023/05/24 01:30:11;;;;;;;7.60;4.22;;;;;;;;;;6193525;28;20105;-86
2023/05/24 01:33:13;;;;;;;7.68;4.50;;;;;;;;;;6194323;28;20382;-82
2023/05/24 01:36:14;;;;;;;6.68;4.80;;;;;;;;;;6193369;28;20050;-83
2023/05/24 01:39:17;;;;;;;7.22;4.38;;;;;;;;;;6196098;28;20074;-86
2023/05/24 01:42:26;;;;;;;7.72;5.60;;;;;;;;;;6193249;28;20054;-83
2023/05/24 01:45:34;;;;;;;7.30;4.07;;;;;;;;;;6195681;28;20109;-86
2023/05/24 01:48:44;;;;;;;8.55;4.88;;;;;;;;;;6194586;28;20081;-85
2023/05/24 01:51:49;;;;;;;7.22;4.53;;;;;;;;;;6195284;28;20050;-85
2023/05/24 01:54:52;;;;;;;7.35;4.65;;;;;;;;;;6196001;28;20346;-85
2023/05/24 01:57:59;;;;;;;7.10;4.50;;;;;;;;;;6192460;28;20358;-85
2023/05/24 02:01:01;;;;;;;8.93;4.65;;;;;;;;;;6195985;28;20069;-85
2023/05/24 02:04:02;;;;;;;10.77;5.03;;;;;;;;;;6193215;28;20057;-85
2023/05/24 02:07:05;;;;;;;11.00;4.50;;;;;;;;;;6195847;28;20294;-85
2023/05/24 02:10:07;;;;;;;11.43;4.78;;;;;;;;;;6193807;28;20062;-85
2023/05/24 02:13:10;;;;;;;9.05;5.30;;;;;;;;;;6195918;28;20073;-85
2023/05/24 02:16:12;;;;;;;6.13;4.63;;;;;;;;;;6196222;28;21145;-85
2023/05/24 02:19:14;;;;;;;8.57;4.57;;;;;;;;;;6193833;28;20054;-85
2023/05/24 02:22:16;;;;;;;9.57;4.70;;;;;;;;;;6192800;28;20058;-86
2023/05/24 02:25:17;;;;;;;8.98;5.38;;;;;;;;;;6193182;28;20070;-85
2023/05/24 02:28:20;;;;;;;8.90;5.22;;;;;;;;;;6191316;28;20081;-85
2023/05/24 02:31:22;;;;;;;10.75;4.80;;;;;;;;;;6190972;28;20050;-86
2023/05/24 02:34:24;;;;;;;8.38;4.75;;;;;;;;;;6193969;28;20105;-86
2023/05/24 02:37:26;;;;;;;7.03;4.13;;;;;;;;;;6193700;28;20060;-85
2023/05/24 02:40:27;;;;;;;10.25;4.78;;;;;;;;;;6194693;28;20059;-84
2023/05/24 02:43:30;;;;;;;9.75;5.07;;;;;;;;;;6195349;28;20062;-83
2023/05/24 02:46:32;;;;;;;14.40;5.10;;;;;;;;;;6193960;28;20054;-83
2023/05/24 02:49:34;;;;;;;9.05;4.97;;;;;;;;;;6193115;28;20161;-83
2023/05/24 02:52:35;;;;;;;11.07;4.95;;;;;;;;;;6196049;28;20054;-83
2023/05/24 02:55:37;;;;;;;7.30;4.78;;;;;;;;;;6195554;28;20339;-83
2023/05/24 02:58:40;;;;;;;7.00;4.70;;;;;;;;;;6198706;28;20053;-84
2023/05/24 03:01:42;;;;;;;5.93;4.50;;;;;;;;;;6199576;28;20270;-84
2023/05/24 03:04:43;;;;;;;7.53;4.88;;;;;;;;;;6198832;28;20222;-83
2023/05/24 03:07:45;;;;;;;9.02;4.95;;;;;;;;;;6201087;28;20105;-84
2023/05/24 03:10:47;;;;;;;10.77;5.20;;;;;;;;;;6199017;28;20133;-84
2023/05/24 03:13:50;;;;;;;8.63;5.00;;;;;;;;;;6193854;28;20124;-83
2023/05/24 03:16:52;;;;;;;10.48;5.00;;;;;;;;;;6196950;28;20121;-84
2023/05/24 03:19:53;;;;;;;9.27;4.90;;;;;;;;;;6196537;28;20054;-82
2023/05/24 03:22:55;;;;;;;8.35;5.40;;;;;;;;;;6198002;28;20173;-83
2023/05/24 03:25:57;;;;;;;10.35;5.38;;;;;;;;;;6195638;28;20567;-83
2023/05/24 03:29:00;;;;;;;7.53;5.18;;;;;;;;;;6195565;28;20043;-84
2023/05/24 03:32:01;;;;;;;10.00;5.45;;;;;;;;;;6199333;28;20050;-83
2023/05/24 03:35:03;;;;;;;8.48;4.32;;;;;;;;;;6198499;28;20067;-84
2023/05/24 03:38:05;;;;;;;9.23;4.45;;;;;;;;;;6194385;28;20051;-86
2023/05/24 03:41:07;;;;;;;9.15;5.13;;;;;;;;;;6198558;28;20049;-83
2023/05/24 03:44:10;;;;;;;5.63;4.45;;;;;;;;;;6198024;28;20323;-84
2023/05/24 03:47:11;;;;;;;7.80;5.53;;;;;;;;;;6196767;28;20271;-84
2023/05/24 03:50:13;;;;;;;6.28;4.90;;;;;;;;;;6195625;28;20058;-84
2023/05/24 03:53:15;;;;;;;8.38;5.30;;;;;;;;;;6195676;28;20327;-85
2023/05/24 03:56:17;;;;;;;8.15;4.90;;;;;;;;;;6197936;28;20096;-84
2023/05/24 03:59:20;;;;;;;8.00;4.85;;;;;;;;;;6196522;28;20058;-85
2023/05/24 04:02:22;;;;;;;6.97;5.13;;;;;;;;;;6192312;28;20050;-86
2023/05/24 04:05:25;;;;;;;6.75;4.97;;;;;;;;;;6196699;28;20262;-83
2023/05/24 04:08:27;;;;;;;11.13;5.22;;;;;;;;;;6194407;28;20082;-84
2023/05/24 04:11:29;;;;;;;7.68;5.10;;;;;;;;;;6195767;28;20215;-85
2023/05/24 04:14:32;;;;;;;9.57;5.03;;;;;;;;;;6195655;28;20061;-84
2023/05/24 04:17:33;;;;;;;6.95;5.25;;;;;;;;;;6194637;28;20342;-84
2023/05/24 04:20:35;;;;;;;7.60;5.30;;;;;;;;;;6198894;28;20076;-85
2023/05/24 04:23:37;;;;;;;8.43;4.88;;;;;;;;;;6195844;28;20069;-86
2023/05/24 04:26:39;;;;;;;9.57;5.22;;;;;;;;;;6196807;28;20294;-83
2023/05/24 04:29:44;;;;;;;7.55;5.22;;;;;;;;;;6196578;28;20127;-83
2023/05/24 04:32:47;;;;;;;14.77;5.38;;;;;;;;;;6193946;28;20054;-83
2023/05/24 04:35:49;;;;;;;9.05;5.40;;;;;;;;;;6193168;28;20061;-85
2023/05/24 04:38:52;;;;;;;8.63;5.32;;;;;;;;;;6196413;28;20064;-85
2023/05/24 04:41:55;;;;;;;6.13;4.60;;;;;;;;;;6196572;28;20054;-82
2023/05/24 04:44:58;;;;;;;10.57;5.00;;;;;;;;;;6196566;28;20680;-85
2023/05/24 04:48:00;;;;;;;9.55;5.22;;;;;;;;;;6195415;28;21241;-85
2023/05/24 04:51:02;;;;;;;10.00;5.18;;;;;;;;;;6147774;28;1273960;-84
2023/05/24 04:54:07;;;;;;;9.02;5.00;;;;;;;;;;6194913;28;20042;-85
2023/05/24 04:57:09;;;;;;;9.02;4.78;;;;;;;;;;6197881;28;20266;-85
2023/05/24 05:00:13;;;;;;;8.25;5.30;;;;;;;;;;6195599;28;20132;-83
2023/05/24 05:03:15;;;;;;;11.93;5.57;;;;;;;;;;6195934;28;20092;-86
2023/05/24 05:06:16;;;;;;;8.45;5.15;;;;;;;;;;6196938;28;20050;-86
2023/05/24 05:09:18;;;;;;;8.20;5.70;;;;;;;;;;6195334;28;20414;-85
2023/05/24 05:12:20;;;;;;;7.10;5.13;;;;;;;;;;6199033;28;20038;-84
2023/05/24 05:15:24;;;;;;;9.63;5.10;;;;;;;;;;6197989;28;20330;-86
2023/05/24 05:18:26;;;;;;;8.10;4.78;;;;;;;;;;6197832;28;20074;-86
2023/05/24 05:21:27;;;;;;;10.38;4.82;;;;;;;;;;6192966;28;20199;-86
2023/05/24 05:24:29;;;;;;;8.05;5.60;;;;;;;;;;6194837;28;20049;-86
2023/05/24 05:27:31;;;;;;;7.32;4.68;;;;;;;;;;6195370;28;20156;-85
2023/05/24 05:30:34;;;;;;;8.95;5.35;;;;;;;;;;6196848;28;20199;-84
2023/05/24 05:33:36;;;;;;;8.57;5.47;;;;;;;;;;6195468;28;20078;-85
2023/05/24 05:36:39;;;;;;;12.25;5.32;;;;;;;;;;6196848;28;20104;-86
2023/05/24 05:39:41;;;;;;;;;;;;;;;;;;6193707;28;20062;-85
2023/05/24 05:42:42;;;;;;;9.07;5.53;;;;;;;;;;6195994;28;19936;-85
2023/05/24 05:45:45;;;;;;;10.02;5.88;;;;;;;;;;6196064;28;20065;-85
2023/05/24 05:48:47;;;;;;;14.02;6.05;;;;;;;;;;6197083;28;20042;-86
2023/05/24 05:51:51;;;;;;;12.90;6.38;;;;;;;;;;6195012;28;20054;-84
2023/05/24 05:54:53;;;;;;;18.65;7.07;;;;;;;;;;6195262;28;20084;-86
2023/05/24 05:57:55;;;;;;;14.07;6.40;;;;;;;;;;6194100;28;20066;-84
2023/05/24 06:00:58;;;;;;;13.05;7.25;;;;;;;;;;6195646;28;20081;-86
2023/05/24 06:03:59;;;;;;;9.25;7.10;;;;;;;;;;6192302;28;20188;-85
2023/05/24 06:07:01;;;;;;;14.15;7.43;;;;;;;;;;6195662;28;20323;-87
2023/05/24 06:10:03;;;;;;;10.93;7.45;;;;;;;;;;6195561;28;20249;-82
2023/05/24 06:13:04;;;;;;;10.98;7.10;;;;;;;;;;6196418;28;20541;-86
2023/05/24 06:16:08;;;;;;;12.63;7.55;;;;;;;;;;6194841;28;20066;-86
2023/05/24 06:19:10;;;;;;;13.35;8.20;;;;;;;;;;6193569;28;20050;-86
2023/05/24 06:22:11;;;;;;;11.73;8.32;;;;;;;;;;6194326;28;20065;-86
2023/05/24 06:25:17;;;;;;;13.10;8.07;;;;;;;;;;6193749;28;20062;-86
2023/05/24 06:28:19;;;;;;;15.50;9.27;;;;;;;;;;6191630;28;20057;-85
2023/05/24 06:31:22;;;;;;;15.57;9.57;;;;;;;;;;6191347;28;20047;-84
2023/05/24 06:34:24;;;;;;;12.48;9.75;;;;;;;;;;6193451;28;20081;-83
2023/05/24 06:37:30;;;;;;;15.40;9.48;;;;;;;;;;6193150;28;20056;-84
2023/05/24 06:40:31;;;;;;;13.98;9.65;;;;;;;;;;6195130;28;20070;-84
2023/05/24 06:43:33;;;;;;;14.88;10.02;;;;;;;;;;6194419;28;20042;-86
2023/05/24 06:46:36;;;;;;;16.52;9.95;;;;;;;;;;6194524;28;20132;-85
2023/05/24 06:49:38;;;;;;;14.98;10.45;;;;;;;;;;6193194;28;20128;-86
2023/05/24 06:52:40;;;;;;;15.30;9.27;;;;;;;;;;6193662;28;20057;-85
2023/05/24 06:55:41;;;;;;;17.05;11.38;;;;;;;;;;6195740;28;20046;-86
2023/05/24 06:58:43;;;;;;;14.70;10.90;;;;;;;;;;6193984;28;20640;-84
2023/05/24 07:01:48;;;;;;;16.05;11.52;;;;;;;;;;6191266;28;20054;-86
2023/05/24 07:04:50;;;;;;;16.20;11.18;;;;;;;;;;6194094;28;20081;-86
2023/05/24 07:07:52;;;;;;;16.33;11.25;;;;;;;;;;6193578;28;20639;-86
2023/05/24 07:10:54;;;;;;;15.05;10.40;;;;;;;;;;6193701;28;20066;-85
2023/05/24 07:13:56;;;;;;;17.33;10.90;;;;;;;;;;6195066;28;20396;-87
2023/05/24 07:16:59;;;;;;;13.80;10.45;;;;;;;;;;6192582;28;20062;-86
2023/05/24 07:20:02;;;;;;;15.32;10.43;;;;;;;;;;6191661;28;20110;-86
2023/05/24 07:23:05;;;;;;;14.55;10.52;;;;;;;;;;6192667;28;20097;-85
2023/05/24 07:26:07;;;;;;;16.52;10.93;;;;;;;;;;6193439;28;20223;-86
2023/05/24 07:29:09;;;;;;;19.75;11.80;;;;;;;;;;6194090;28;20050;-86
2023/05/24 07:32:12;;;;;;;17.35;11.48;;;;;;;;;;6192477;28;20093;-86
2023/05/24 07:35:14;;;;;;;16.45;11.85;;;;;;;;;;6194228;28;20334;-86
2023/05/24 07:38:17;;;;;;;12.25;10.25;;;;;;;;;;6195354;28;20123;-84
2023/05/24 07:41:19;;;;;;;16.13;11.20;;;;;;;;;;6194669;28;20212;-86
2023/05/24 07:44:21;;;;;;;14.33;10.60;;;;;;;;;;6197416;28;20042;-87
2023/05/24 07:47:24;;;;;;;16.38;11.25;;;;;;;;;;6196191;28;20333;-85
2023/05/24 07:50:27;;;;;;;18.95;12.02;;;;;;;;;;6197534;28;20056;-85
2023/05/24 07:53:30;;;;;;;16.88;11.30;;;;;;;;;;6197193;28;20169;-87
2023/05/24 07:56:32;;;;;;;15.57;10.67;;;;;;;;;;6196948;28;20146;-87
2023/05/24 07:59:33;;;;;;;17.38;10.98;;;;;;;;;;6196105;28;20122;-88
2023/05/24 08:02:36;;;;;;;15.63;11.88;;;;;;;;;;6199881;28;20074;-87
2023/05/24 08:05:38;;;;;;;15.45;11.52;;;;;;;;;;6197124;28;20069;-85
2023/05/24 08:08:40;;;;;;;16.67;12.63;;;;;;;;;;6195905;28;20046;-85
2023/05/24 08:11:42;;;;;;;16.90;12.73;;;;;;;;;;6198181;28;20266;-87
2023/05/24 08:14:44;;;;;;;16.08;12.48;;;;;;;;;;6195151;28;20063;-85
2023/05/24 08:17:48;;;;;;;17.83;11.90;;;;;;;;;;6193715;28;20153;-85
2023/05/24 08:20:49;;;;;;;14.77;12.30;;;;;;;;;;6197269;28;20370;-87
2023/05/24 08:23:51;;;;;;;17.08;12.32;;;;;;;;;;6197064;28;20085;-88
2023/05/24 08:26:53;;;;;;;14.88;11.95;;;;;;;;;;6196055;28;20062;-88
2023/05/24 08:29:54;;;;;;;17.65;12.80;;;;;;;;;;6196807;28;20054;-86
2023/05/24 08:32:58;;;;;;;17.58;13.80;;;;;;;;;;6198085;28;20457;-85
2023/05/24 08:35:59;;;;;;;16.38;12.68;;;;;;;;;;6194395;28;20054;-85
2023/05/24 08:39:01;;;;;;;16.23;12.75;;;;;;;;;;6196816;28;20058;-86
2023/05/24 08:42:03;;;;;;;19.58;14.65;;;;;;;;;;6196421;28;20085;-86
2023/05/24 08:45:09;;;;;;;19.67;12.97;;;;;;;;;;6197750;28;20150;-88
2023/05/24 08:48:13;;;;;;;16.63;14.35;;;;;;;;;;6195189;28;20465;-88
2023/05/24 08:51:15;;;;;;;16.50;14.38;;;;;;;;;;6209041;28;20211;-88
2023/05/24 08:54:17;;;;;;;19.25;13.90;;;;;;;;;;6195842;28;20054;-88
2023/05/24 08:57:19;;;;;;;15.80;14.07;;;;;;;;;;6195837;28;20074;-87
2023/05/24 09:00:22;;;;;;;17.80;13.63;;;;;;;;;;6197858;28;20062;-87
2023/05/24 09:03:25;;;;;;;;;;;;;;;;;;6197615;28;20201;-87
2023/05/24 09:06:27;;;;;;;18.10;15.35;;;;;;;;;;6197235;28;19926;-86
2023/05/24 09:09:29;;;;;;;17.37;14.50;;;;;;;;;;6196402;28;20054;-85
2023/05/24 09:12:32;;;;;;;20.73;14.98;;;;;;;;;;6196201;28;20657;-88
2023/05/24 09:15:34;;;;;;;18.48;15.05;;;;;;;;;;6196764;28;20061;-85
2023/05/24 09:18:37;;;;;;;21.03;15.67;;;;;;;;;;6194631;28;20058;-84
2023/05/24 09:21:39;;;;;;;19.25;13.70;;;;;;;;;;6195157;28;20454;-85
2023/05/24 09:24:43;;;;;;;15.30;13.30;;;;;;;;;;6195727;28;20061;-86
2023/05/24 09:27:50;;;;;;;18.40;16.17;;;;;;;;;;6195547;28;20461;-86
2023/05/24 09:31:00;;;;;;;18.05;14.93;;;;;;;;;;6195110;28;20054;-88
2023/05/24 09:34:03;;;;;;;21.05;16.77;;;;;;;;;;6196578;28;20439;-87
2023/05/24 09:37:06;;;;;;;23.45;15.30;;;;;;;;;;6192459;28;20325;-88
2023/05/24 09:40:17;;;;;;;16.77;14.48;;;;;;;;;;6193063;28;20057;-87
2023/05/24 09:43:19;;;;;;;17.88;13.15;;;;;;;;;;6194968;28;20295;-87
2023/05/24 09:46:21;;;;;;;15.47;13.87;;;;;;;;;;6197491;28;20345;-87
2023/05/24 09:49:24;;;;;;;17.70;13.65;;;;;;;;;;6192770;28;20982;-87
2023/05/24 09:52:26;;;;;;;16.33;13.98;;;;;;;;;;6194390;28;20054;-87
2023/05/24 09:55:28;;;;;;;21.35;17.08;;;;;;;;;;6195236;28;20066;-88
2023/05/24 09:58:31;;;;;;;21.95;17.25;;;;;;;;;;6196576;28;20057;-88
2023/05/24 10:01:33;;;;;;;16.15;13.70;;;;;;;;;;6196561;28;20105;-86
2023/05/24 10:04:37;;;;;;;18.92;12.88;;;;;;;;;;6193573;28;20050;-85
2023/05/24 10:07:41;;;;;;;18.92;14.88;;;;;;;;;;6193580;28;20058;-88
2023/05/24 10:10:43;;;;;;;16.40;14.45;;;;;;;;;;6193589;28;20038;-86
2023/05/24 10:13:45;;;;;;;20.35;16.40;;;;;;;;;;6191976;28;20061;-88
2023/05/24 10:16:47;;;;;;;21.67;16.73;;;;;;;;;;6193280;28;20460;-87
2023/05/24 10:19:51;;;;;;;17.15;14.40;;;;;;;;;;6192726;28;20219;-86
2023/05/24 10:22:54;;;;;;;19.88;16.88;;;;;;;;;;6194497;28;20054;-87
2023/05/24 10:26:05;;;;;;;19.05;14.93;;;;;;;;;;6194118;28;20274;-86
2023/05/24 10:29:08;;;;;;;18.25;13.82;;;;;;;;;;6191832;28;20077;-88
2023/05/24 10:32:10;;;;;;;15.85;12.88;;;;;;;;;;6192023;28;20050;-86
2023/05/24 10:35:14;;;;;;;19.67;14.20;;;;;;;;;;6194422;28;20042;-87
2023/05/24 10:38:16;;;;;;;16.92;14.35;;;;;;;;;;6191575;28;20118;-88
2023/05/24 10:41:18;;;;;;;13.68;12.25;;;;;;;;;;6193037;28;20058;-88
2023/05/24 10:44:20;;;;;;;;;;;;;;;;;;6192127;28;20092;-90
2023/05/24 10:47:21;;;;;;;21.92;17.95;;;;;;;;;;6192540;28;19928;-87
2023/05/24 10:50:24;;;;;;;19.30;17.30;;;;;;;;;;6194092;28;20065;-89
2023/05/24 10:53:27;;;;;;;19.00;16.95;;;;;;;;;;6191366;28;20061;-87
2023/05/24 10:56:28;;;;;;;22.92;18.08;;;;;;;;;;6194384;28;20057;-86
2023/05/24 10:59:33;;;;;;;20.13;17.15;;;;;;;;;;6193158;28;20050;-86
2023/05/24 11:02:35;;;;;;;18.83;16.92;;;;;;;;;;6193196;28;20065;-88
2023/05/24 11:05:51;;;;;;;23.17;19.38;;;;;;;;;;6190991;28;20101;-86
2023/05/24 11:08:53;;;;;;;25.55;21.08;;;;;;;;;;6191435;28;20357;-88
2023/05/24 11:11:56;;;;;;;23.45;20.48;;;;;;;;;;6192816;28;20069;-88
2023/05/24 11:14:59;;;;;;;22.33;19.17;;;;;;;;;;6191355;28;20062;-88
2023/05/24 11:18:14;;;;;;;27.30;22.88;;;;;;;;;;6195612;28;20074;-87
2023/05/24 11:21:17;;;;;;;24.83;21.17;;;;;;;;;;6209450;28;20330;-87
2023/05/24 11:24:20;;;;;;;24.58;21.63;;;;;;;;;;6197688;28;20078;-88
2023/05/24 11:27:22;;;;;;;22.45;19.45;;;;;;;;;;6198230;28;20070;-86
2023/05/24 11:30:25;;;;;;;22.00;19.60;;;;;;;;;;6197948;28;20057;-86
2023/05/24 11:33:27;;;;;;;22.25;16.10;;;;;;;;;;6198045;28;20050;-87
2023/05/24 11:36:31;;;;;;;19.40;16.40;;;;;;;;;;6197404;28;20046;-87
2023/05/24 11:39:36;;;;;;;32.58;16.33;;;;;;;;;;6194662;28;20059;-86
2023/05/24 11:42:38;;;;;;;33.95;17.52;;;;;;;;;;6196211;28;20235;-88
2023/05/24 11:45:41;;;;;;;21.60;16.70;;;;;;;;;;6193567;28;20054;-85
2023/05/24 11:48:43;;;;;;;25.55;19.90;;;;;;;;;;6197868;28;20110;-88
2023/05/24 11:51:46;;;;;;;24.40;20.75;;;;;;;;;;6196968;28;20388;-85
2023/05/24 11:54:49;;;;;;;22.15;19.70;;;;;;;;;;6195185;28;20062;-86
2023/05/24 11:57:56;;;;;;;24.40;17.10;;;;;;;;;;6197494;28;20275;-87
2023/05/24 12:00:57;;;;;;;20.00;16.08;;;;;;;;;;6198659;28;20062;-88
2023/05/24 12:03:59;;;;;;;29.88;21.83;;;;;;;;;;6194874;28;20113;-85
2023/05/24 12:07:03;;;;;;;26.85;21.75;;;;;;;;;;6198113;28;20046;-86
2023/05/24 12:10:05;;;;;;;28.83;24.42;;;;;;;;;;6192334;28;20058;-86
2023/05/24 12:13:17;;;;;;;28.65;25.23;;;;;;;;;;6197121;28;20109;-86
2023/05/24 12:16:19;;;;;;;34.75;27.10;;;;;;;;;;6174457;28;20192;-85
2023/05/24 12:19:21;;;;;;;27.73;24.67;;;;;;;;;;6187231;28;20112;-85
2023/05/24 12:22:30;;;;;;;33.50;27.02;;;;;;;;;;6195794;28;20649;-86
2023/05/24 12:25:32;;;;;;;25.48;21.50;;;;;;;;;;6196081;28;20077;-87
2023/05/24 12:28:37;;;;;;;29.00;21.33;;;;;;;;;;6195003;28;20050;-84
2023/05/24 12:31:41;;;;;;;33.45;25.10;;;;;;;;;;6196968;28;20559;-84
2023/05/24 12:34:43;;;;;;;34.90;24.15;;;;;;;;;;6194949;28;20118;-82
2023/05/24 12:37:47;;;;;;;28.40;23.87;;;;;;;;;;6195090;28;20054;-83
2023/05/24 12:40:49;;;;;;;31.33;25.10;;;;;;;;;;6178234;28;20059;-86
2023/05/24 12:43:51;;;;;;;41.87;24.37;;;;;;;;;;6195990;28;20046;-84
2023/05/24 12:46:54;;;;;;;30.13;20.15;;;;;;;;;;6194588;28;20473;-85
2023/05/24 12:49:55;;;;;;;28.75;18.23;;;;;;;;;;6172110;28;20377;-83
2023/05/24 12:52:58;;;;;;;24.58;16.70;;;;;;;;;;6168865;28;20066;-85
2023/05/24 12:56:00;;;;;;;22.67;15.70;;;;;;;;;;6169713;28;20051;-86
2023/05/24 12:59:02;;;;;;;22.25;14.20;;;;;;;;;;6172463;28;20441;-86
2023/05/24 13:02:04;;;;;;;16.45;10.30;;;;;;;;;;6173417;28;20117;-86
2023/05/24 13:05:09;;;;;;;11.23;8.90;;;;;;;;;;6171702;28;20247;-84
2023/05/24 13:08:12;;;;;;;16.63;12.02;;;;;;;;;;6173166;28;20098;-85
2023/05/24 13:11:14;;;;;;;22.00;14.90;;;;;;;;;;6189622;28;20342;-85
2023/05/24 13:14:16;;;;;;;19.40;14.15;;;;;;;;;;6171291;28;20078;-86
2023/05/24 13:17:19;;;;;;;14.75;8.35;;;;;;;;;;6187502;28;20058;-84
2023/05/24 13:20:22;;;;;;;11.50;7.33;;;;;;;;;;6172391;28;20086;-85
2023/05/24 13:23:25;;;;;;;9.60;7.65;;;;;;;;;;6169957;28;20322;-86
2023/05/24 13:26:27;;;;;;;;;;;;;;;;;;6172460;28;20154;-85
2023/05/24 13:29:29;;;;;;;20.30;16.10;;;;;;;;;;6171430;28;19926;-85
2023/05/24 13:32:32;;;;;;;19.67;15.93;;;;;;;;;;6170304;28;20098;-84
2023/05/24 13:35:33;;;;;;;19.73;15.02;;;;;;;;;;6169704;28;20058;-84
2023/05/24 13:38:37;;;;;;;21.83;15.18;;;;;;;;;;6181818;28;20058;-85
2023/05/24 13:41:39;;;;;;;18.45;14.57;;;;;;;;;;6194602;28;20057;-86
2023/05/24 13:44:41;;;;;;;18.45;14.50;;;;;;;;;;6179232;28;20055;-83
2023/05/24 13:47:42;;;;;;;15.85;12.55;;;;;;;;;;6175216;28;20272;-83
2023/05/24 13:50:44;;;;;;;17.95;14.95;;;;;;;;;;6169751;28;20374;-83
2023/05/24 13:53:48;;;;;;;18.45;13.75;;;;;;;;;;6170181;28;20066;-85
2023/05/24 13:56:49;;;;;;;18.45;12.02;;;;;;;;;;6170385;28;20354;-86
2023/05/24 13:59:52;;;;;;;19.98;13.20;;;;;;;;;;6173417;28;20054;-85
2023/05/24 14:02:54;;;;;;;15.48;11.27;;;;;;;;;;6165419;28;20061;-86
2023/05/24 14:05:55;;;;;;;13.95;10.45;;;;;;;;;;6173301;28;20061;-86
2023/05/24 14:08:59;;;;;;;14.73;10.25;;;;;;;;;;6170923;28;20329;-87
2023/05/24 14:12:02;;;;;;;14.48;10.55;;;;;;;;;;6170180;28;20390;-86
2023/05/24 14:15:03;;;;;;;;;;;;;;;;;;6170450;28;20057;-87
2023/05/24 14:18:06;;;;;;;14.45;10.02;;;;;;;;;;6168940;28;20122;-86
2023/05/24 14:21:09;;;;;;;12.45;8.55;;;;;;;;;;6183982;28;20112;-86
2023/05/24 14:24:12;;;;;;;9.93;8.27;;;;;;;;;;6194772;28;20130;-86
2023/05/24 14:27:14;;;;;;;13.02;8.60;;;;;;;;;;6196920;28;20322;-88
2023/05/24 14:30:16;;;;;;;11.20;8.33;;;;;;;;;;6193591;28;20042;-84
2023/05/24 14:33:18;;;;;;;11.77;7.80;;;;;;;;;;6181236;28;20742;-88
2023/05/24 14:36:20;;;;;;;10.73;7.63;;;;;;;;;;6191979;28;20340;-86
2023/05/24 14:39:23;;;;;;;15.18;8.32;;;;;;;;;;6193538;28;20062;-87
2023/05/24 14:42:24;;;;;;;15.75;9.07;;;;;;;;;;6193498;28;20062;-86
2023/05/24 14:45:26;;;;;;;12.13;8.20;;;;;;;;;;6195192;28;20255;-86
2023/05/24 14:48:28;;;;;;;20.58;8.65;;;;;;;;;;6194201;28;20343;-86
2023/05/24 14:51:29;;;;;;;14.05;10.45;;;;;;;;;;6194091;28;20098;-86
2023/05/24 14:54:32;;;;;;;15.40;8.50;;;;;;;;;;6197100;28;20042;-85
2023/05/24 14:57:35;;;;;;;;;;;;;;;;;;6197911;28;20124;-86
2023/05/24 15:00:37;;;;;;;14.23;8.18;;;;;;;;;;6195205;28;19952;-86
2023/05/24 15:03:38;;;;;;;20.13;8.30;;;;;;;;;;6199449;28;20402;-85
2023/05/24 15:06:40;;;;;;;9.55;6.43;;;;;;;;;;6198110;28;20101;-86
2023/05/24 15:09:43;;;;;;;8.95;6.57;;;;;;;;;;6197239;28;20054;-87
2023/05/24 15:12:45;;;;;;;;;;;;;;;;;;6200407;28;20247;-86
2023/05/24 15:15:47;;;;;;;8.98;6.63;;;;;;;;;;6199529;28;19924;-83
2023/05/24 15:18:48;;;;;;;10.73;6.30;;;;;;;;;;6197090;28;20398;-81
2023/05/24 15:21:50;;;;;;;12.40;5.90;;;;;;;;;;6196280;28;20090;-79
2023/05/24 15:24:53;;;;;;;11.18;7.05;;;;;;;;;;6195589;28;20105;-79
2023/05/24 15:27:55;;;;;;;19.60;7.63;;;;;;;;;;6187109;28;20050;-80
2023/05/24 15:30:57;;;;;;;8.52;6.60;;;;;;;;;;6193447;28;20101;-81
2023/05/24 15:33:58;;;;;;;11.40;7.05;;;;;;;;;;6190953;28;20054;-81
2023/05/24 15:37:00;;;;;;;13.35;9.98;;;;;;;;;;6193382;28;20538;-80
2023/05/24 15:40:03;;;;;;;14.30;8.88;;;;;;;;;;6192282;28;20058;-79
2023/05/24 15:43:05;;;;;;;15.23;8.23;;;;;;;;;;6191941;28;20069;-79
2023/05/24 15:46:07;;;;;;;10.55;7.85;;;;;;;;;;6186910;28;20058;-79
2023/05/24 15:49:08;;;;;;;12.52;7.28;;;;;;;;;;6191199;28;20059;-80
2023/05/24 15:52:10;;;;;;;9.70;7.88;;;;;;;;;;6189740;28;20058;-82
2023/05/24 15:55:13;;;;;;;11.48;8.70;;;;;;;;;;6192268;28;20423;-80
2023/05/24 15:58:15;;;;;;;;;;;;;;;;;;6191786;28;20054;-81
2023/05/24 16:01:17;;;;;;;13.02;8.57;;;;;;;;;;6196495;28;19933;-76
2023/05/24 16:04:19;;;;;;;9.25;7.28;;;;;;;;;;6196594;28;20097;-79
2023/05/24 16:07:20;;;;;;;17.75;9.25;;;;;;;;;;6193198;28;20050;-77
2023/05/24 16:10:24;;;;;;;9.35;7.18;;;;;;;;;;6197555;28;20055;-81
2023/05/24 16:13:25;;;;;;;15.82;6.43;;;;;;;;;;6195947;28;20082;-88
2023/05/24 16:16:27;;;;;;;18.60;8.40;;;;;;;;;;6193801;28;20050;-84
2023/05/24 16:19:29;;;;;;;13.05;7.85;;;;;;;;;;6192098;28;20062;-83
2023/05/24 16:22:34;;;;;;;14.80;7.75;;;;;;;;;;6195893;28;20119;-84
2023/05/24 16:25:37;;;;;;;17.13;8.18;;;;;;;;;;6195264;28;20058;-83
2023/05/24 16:28:39;;;;;;;9.80;8.35;;;;;;;;;;6192590;28;20054;-81
2023/05/24 16:31:40;;;;;;;12.63;8.30;;;;;;;;;;6195724;28;20069;-84
2023/05/24 16:34:42;;;;;;;16.73;10.52;;;;;;;;;;6196113;28;20053;-85
2023/05/24 16:37:44;;;;;;;19.55;10.50;;;;;;;;;;6191089;28;20066;-84
2023/05/24 16:40:47;;;;;;;22.90;10.52;;;;;;;;;;6195110;28;20089;-85
2023/05/24 16:43:48;;;;;;;;;;;;;;;;;;6195570;28;20057;-85
2023/05/24 16:46:50;;;;;;;12.35;9.43;;;;;;;;;;6194983;28;19972;-84
2023/05/24 16:49:52;;;;;;;15.82;9.05;;;;;;;;;;6193446;28;20056;-84
2023/05/24 16:52:53;;;;;;;18.00;8.77;;;;;;;;;;6195169;28;20339;-85
2023/05/24 16:55:56;;;;;;;11.88;8.02;;;;;;;;;;6193185;28;20058;-82
2023/05/24 16:58:58;;;;;;;14.95;7.57;;;;;;;;;;6194393;28;20053;-84
2023/05/24 17:02:00;;;;;;;10.20;6.63;;;;;;;;;;6193291;28;20116;-84
2023/05/24 17:05:02;;;;;;;7.90;6.05;;;;;;;;;;6191134;28;20346;-86
2023/05/24 17:08:04;;;;;;;12.25;6.60;;;;;;;;;;6198664;28;20138;-82
2023/05/24 17:11:07;;;;;;;7.75;6.43;;;;;;;;;;6195288;28;20062;-83
2023/05/24 17:14:09;;;;;;;8.38;5.97;;;;;;;;;;6197379;28;20056;-84
2023/05/24 17:17:11;;;;;;;9.32;6.35;;;;;;;;;;6193862;28;20354;-83
2023/05/24 17:20:13;;;;;;;9.13;6.28;;;;;;;;;;6190357;28;20047;-84
2023/05/24 17:23:15;;;;;;;10.85;6.18;;;;;;;;;;6198011;28;20054;-84
2023/05/24 17:26:18;;;;;;;8.60;6.00;;;;;;;;;;6168298;28;20039;-84
2023/05/24 17:29:20;;;;;;;11.45;6.82;;;;;;;;;;6194604;28;20101;-84
2023/05/24 17:32:22;;;;;;;8.07;5.97;;;;;;;;;;6193824;28;20053;-83
2023/05/24 17:35:24;;;;;;;10.35;5.90;;;;;;;;;;6194319;28;20137;-83
2023/05/24 17:38:27;;;;;;;9.25;5.97;;;;;;;;;;6192801;28;20160;-84
2023/05/24 17:41:31;;;;;;;8.97;5.77;;;;;;;;;;6192333;28;21072;-83
2023/05/24 17:44:32;;;;;;;8.80;6.18;;;;;;;;;;6193076;28;20054;-84
2023/05/24 17:47:34;;;;;;;10.02;6.13;;;;;;;;;;6192675;28;20160;-87
2023/05/24 17:50:36;;;;;;;9.05;5.90;;;;;;;;;;6181677;28;20098;-85
2023/05/24 17:53:39;;;;;;;9.40;6.53;;;;;;;;;;6173049;28;20157;-92
2023/05/24 17:56:43;;;;;;;8.88;6.50;;;;;;;;;;6157322;28;20058;-86
2023/05/24 17:59:46;;;;;;;12.32;6.63;;;;;;;;;;6170502;28;20114;-88